sensor_id;sensor_type;location;lat;lon;timestamp;temperature;humidity
26655;DHT22;14278;50.784;4.630;2023-03-04T05:18:18;6.20;99.90
26655;DHT22;14278;50.784;4.630;2023-03-04T05:20:59;6.20;99.90
26655;DHT22;14278;50.784;4.630;2023-03-04T05:23:58;6.30;99.90
26655;DHT22;14278;50.784;4.630;2023-03-04T05:26:54;6.40;99.90
26655;DHT22;14278;50.784;4.630;2023-03-04T08:55:02;7.90;99.90
26655;DHT22;14278;50.784;4.630;2023-03-04T09:01:02;8.00;99.90
26655;DHT22;14278;50.784;4.630;2023-03-04T09:03:36;7.90;99.90
26655;DHT22;14278;50.784;4.630;2023-03-04T09:06:32;8.20;99.90
26655;DHT22;14278;50.784;4.630;2023-03-04T09:09:46;8.30;99.90
26655;DHT22;14278;50.784;4.630;2023-03-04T09:12:35;8.40;99.90
26655;DHT22;14278;50.784;4.630;2023-03-04T09:15:30;8.50;99.90
26655;DHT22;14278;50.784;4.630;2023-03-04T09:18:05;8.80;99.90
26655;DHT22;14278;50.784;4.630;2023-03-04T09:20:40;9.00;99.90
26655;DHT22;14278;50.784;4.630;2023-03-04T09:26:38;9.40;99.90
26655;DHT22;14278;50.784;4.630;2023-03-04T09:29:18;9.20;99.90
26655;DHT22;14278;50.784;4.630;2023-03-04T09:32:22;9.00;99.90
26655;DHT22;14278;50.784;4.630;2023-03-04T09:46:19;8.80;99.90
26655;DHT22;14278;50.784;4.630;2023-03-04T09:48:51;9.40;99.90
26655;DHT22;14278;50.784;4.630;2023-03-04T09:51:56;9.60;99.90
26655;DHT22;14278;50.784;4.630;2023-03-04T10:02:24;9.00;99.90
26655;DHT22;14278;50.784;4.630;2023-03-04T11:19:15;9.00;99.90
26655;DHT22;14278;50.784;4.630;2023-03-04T11:21:51;9.70;99.90
26655;DHT22;14278;50.784;4.630;2023-03-04T11:32:13;9.50;99.90
26655;DHT22;14278;50.784;4.630;2023-03-04T11:38:28;10.10;99.90
26655;DHT22;14278;50.784;4.630;2023-03-04T12:02:10;11.20;99.90
26655;DHT22;14278;50.784;4.630;2023-03-04T12:05:18;11.40;99.90
26655;DHT22;14278;50.784;4.630;2023-03-04T12:07:42;10.70;99.90
26655;DHT22;14278;50.784;4.630;2023-03-04T12:11:14;10.90;99.90
26655;DHT22;14278;50.784;4.630;2023-03-04T12:31:40;12.40;99.90
26655;DHT22;14278;50.784;4.630;2023-03-04T12:40:35;11.70;99.90
26655;DHT22;14278;50.784;4.630;2023-03-04T12:46:30;10.10;99.90
26655;DHT22;14278;50.784;4.630;2023-03-04T12:56:09;10.60;99.90
26655;DHT22;14278;50.784;4.630;2023-03-04T12:58:41;10.50;99.90
26655;DHT22;14278;50.784;4.630;2023-03-04T13:01:52;9.90;99.90
26655;DHT22;14278;50.784;4.630;2023-03-04T13:11:42;10.20;99.90
26655;DHT22;14278;50.784;4.630;2023-03-04T13:17:43;9.70;99.90
26655;DHT22;14278;50.784;4.630;2023-03-04T13:20:33;10.00;99.90
26655;DHT22;14278;50.784;4.630;2023-03-04T13:23:03;10.10;99.90
26655;DHT22;14278;50.784;4.630;2023-03-04T13:28:45;10.10;99.90
26655;DHT22;14278;50.784;4.630;2023-03-04T13:32:53;9.80;99.90
26655;DHT22;14278;50.784;4.630;2023-03-04T13:37:59;9.70;99.90
26655;DHT22;14278;50.784;4.630;2023-03-04T13:40:34;10.20;99.90
26655;DHT22;14278;50.784;4.630;2023-03-04T13:51:45;10.20;99.90
26655;DHT22;14278;50.784;4.630;2023-03-04T13:54:31;10.50;99.90
26655;DHT22;14278;50.784;4.630;2023-03-04T13:57:26;10.00;99.90
26655;DHT22;14278;50.784;4.630;2023-03-04T14:00:27;10.10;99.90
26655;DHT22;14278;50.784;4.630;2023-03-04T14:03:25;10.70;99.90
26655;DHT22;14278;50.784;4.630;2023-03-04T14:06:17;10.70;99.90
26655;DHT22;14278;50.784;4.630;2023-03-04T14:09:40;10.50;99.90
26655;DHT22;14278;50.784;4.630;2023-03-04T14:12:16;9.90;99.90
26655;DHT22;14278;50.784;4.630;2023-03-04T14:15:26;10.30;99.90
26655;DHT22;14278;50.784;4.630;2023-03-04T14:18:00;10.60;99.90
26655;DHT22;14278;50.784;4.630;2023-03-04T14:20:40;11.00;99.90
26655;DHT22;14278;50.784;4.630;2023-03-04T14:23:29;10.50;99.90
26655;DHT22;14278;50.784;4.630;2023-03-04T14:28:54;9.80;99.90
26655;DHT22;14278;50.784;4.630;2023-03-04T14:35:19;10.10;99.90
26655;DHT22;14278;50.784;4.630;2023-03-04T14:38:14;10.20;99.90
26655;DHT22;14278;50.784;4.630;2023-03-04T14:40:50;10.30;99.90
26655;DHT22;14278;50.784;4.630;2023-03-04T14:43:23;10.10;99.90
26655;DHT22;14278;50.784;4.630;2023-03-04T14:45:52;9.90;99.90
26655;DHT22;14278;50.784;4.630;2023-03-04T14:48:33;10.00;99.90
26655;DHT22;14278;50.784;4.630;2023-03-04T14:51:28;9.60;99.90
26655;DHT22;14278;50.784;4.630;2023-03-04T14:53:55;9.50;99.90
26655;DHT22;14278;50.784;4.630;2023-03-04T14:56:30;9.60;99.90
26655;DHT22;14278;50.784;4.630;2023-03-04T14:59:03;9.60;99.90
26655;DHT22;14278;50.784;4.630;2023-03-04T15:01:34;9.80;99.90
26655;DHT22;14278;50.784;4.630;2023-03-04T15:04:11;9.60;99.90
26655;DHT22;14278;50.784;4.630;2023-03-04T15:06:50;9.20;99.90
26655;DHT22;14278;50.784;4.630;2023-03-04T15:09:26;9.00;99.90
26655;DHT22;14278;50.784;4.630;2023-03-04T15:12:06;9.00;99.90
26655;DHT22;14278;50.784;4.630;2023-03-04T15:14:49;9.40;99.90
26655;DHT22;14278;50.784;4.630;2023-03-04T15:17:40;9.70;99.90
26655;DHT22;14278;50.784;4.630;2023-03-04T15:20:25;9.80;99.90
26655;DHT22;14278;50.784;4.630;2023-03-04T15:25:30;9.70;99.90
26655;DHT22;14278;50.784;4.630;2023-03-04T15:28:14;9.60;99.90
26655;DHT22;14278;50.784;4.630;2023-03-04T15:30:48;9.90;99.90
26655;DHT22;14278;50.784;4.630;2023-03-04T15:33:19;9.80;99.90
26655;DHT22;14278;50.784;4.630;2023-03-04T15:35:59;9.70;99.90
26655;DHT22;14278;50.784;4.630;2023-03-04T15:38:38;9.90;99.90
26655;DHT22;14278;50.784;4.630;2023-03-04T15:41:27;9.70;99.90
26655;DHT22;14278;50.784;4.630;2023-03-04T15:44:05;9.70;99.90
26655;DHT22;14278;50.784;4.630;2023-03-04T15:46:42;9.80;99.90
26655;DHT22;14278;50.784;4.630;2023-03-04T15:49:18;9.90;99.90
26655;DHT22;14278;50.784;4.630;2023-03-04T15:51:56;9.70;99.90
26655;DHT22;14278;50.784;4.630;2023-03-04T15:54:30;9.90;99.90
26655;DHT22;14278;50.784;4.630;2023-03-04T15:57:01;10.40;99.90
26655;DHT22;14278;50.784;4.630;2023-03-04T15:59:31;10.10;99.90
26655;DHT22;14278;50.784;4.630;2023-03-04T16:02:43;10.00;99.90
26655;DHT22;14278;50.784;4.630;2023-03-04T16:05:23;10.00;99.90
26655;DHT22;14278;50.784;4.630;2023-03-04T16:07:58;10.00;99.90
26655;DHT22;14278;50.784;4.630;2023-03-04T16:10:32;9.90;99.90
26655;DHT22;14278;50.784;4.630;2023-03-04T16:13:00;10.20;99.90
26655;DHT22;14278;50.784;4.630;2023-03-04T16:15:37;9.80;99.90
26655;DHT22;14278;50.784;4.630;2023-03-04T16:18:12;9.70;99.90
26655;DHT22;14278;50.784;4.630;2023-03-04T16:21:04;9.80;99.90
26655;DHT22;14278;50.784;4.630;2023-03-04T16:23:44;9.90;99.90
26655;DHT22;14278;50.784;4.630;2023-03-04T16:26:26;9.70;99.90
26655;DHT22;14278;50.784;4.630;2023-03-04T16:29:02;9.90;99.90
26655;DHT22;14278;50.784;4.630;2023-03-04T16:31:41;9.60;99.90
26655;DHT22;14278;50.784;4.630;2023-03-04T16:34:07;9.80;99.90
26655;DHT22;14278;50.784;4.630;2023-03-04T16:36:43;9.50;99.90
26655;DHT22;14278;50.784;4.630;2023-03-04T16:39:25;9.30;99.90
26655;DHT22;14278;50.784;4.630;2023-03-04T16:42:22;9.10;99.90
26655;DHT22;14278;50.784;4.630;2023-03-04T16:44:54;9.60;99.90
26655;DHT22;14278;50.784;4.630;2023-03-04T16:47:39;9.30;99.90
26655;DHT22;14278;50.784;4.630;2023-03-04T16:50:27;9.40;99.90
26655;DHT22;14278;50.784;4.630;2023-03-04T16:53:00;9.50;99.90
26655;DHT22;14278;50.784;4.630;2023-03-04T16:55:29;9.30;99.90
26655;DHT22;14278;50.784;4.630;2023-03-04T16:57:56;9.40;99.90
26655;DHT22;14278;50.784;4.630;2023-03-04T17:00:31;9.60;99.90
26655;DHT22;14278;50.784;4.630;2023-03-04T17:03:02;9.50;99.90
26655;DHT22;14278;50.784;4.630;2023-03-04T17:05:38;9.60;99.90
26655;DHT22;14278;50.784;4.630;2023-03-04T17:08:15;9.30;99.90
26655;DHT22;14278;50.784;4.630;2023-03-04T17:10:43;9.50;99.90
26655;DHT22;14278;50.784;4.630;2023-03-04T17:13:22;9.20;99.90
26655;DHT22;14278;50.784;4.630;2023-03-04T17:16:06;9.20;99.90
26655;DHT22;14278;50.784;4.630;2023-03-04T17:18:42;9.20;99.90
26655;DHT22;14278;50.784;4.630;2023-03-04T17:21:28;9.10;99.90
26655;DHT22;14278;50.784;4.630;2023-03-04T17:23:54;9.30;99.90
26655;DHT22;14278;50.784;4.630;2023-03-04T17:26:48;9.20;99.90
26655;DHT22;14278;50.784;4.630;2023-03-04T17:29:27;9.30;99.90
26655;DHT22;14278;50.784;4.630;2023-03-04T17:32:01;9.00;99.90
26655;DHT22;14278;50.784;4.630;2023-03-04T17:34:30;9.00;99.90
26655;DHT22;14278;50.784;4.630;2023-03-04T17:39:52;9.00;99.90
26655;DHT22;14278;50.784;4.630;2023-03-04T17:42:23;8.80;99.90
26655;DHT22;14278;50.784;4.630;2023-03-04T17:44:54;8.90;99.90
26655;DHT22;14278;50.784;4.630;2023-03-04T17:47:23;9.00;99.90
26655;DHT22;14278;50.784;4.630;2023-03-04T17:50:03;9.00;99.90
26655;DHT22;14278;50.784;4.630;2023-03-04T17:52:39;9.10;99.90
26655;DHT22;14278;50.784;4.630;2023-03-04T17:55:06;8.70;99.90
26655;DHT22;14278;50.784;4.630;2023-03-04T17:57:45;8.90;99.90
26655;DHT22;14278;50.784;4.630;2023-03-04T18:00:20;9.00;99.90
26655;DHT22;14278;50.784;4.630;2023-03-04T18:03:04;8.80;99.90
26655;DHT22;14278;50.784;4.630;2023-03-04T18:05:40;8.90;99.90
26655;DHT22;14278;50.784;4.630;2023-03-04T18:08:14;8.90;99.90
26655;DHT22;14278;50.784;4.630;2023-03-04T18:11:08;8.80;99.90
26655;DHT22;14278;50.784;4.630;2023-03-04T18:13:42;8.60;99.90
26655;DHT22;14278;50.784;4.630;2023-03-04T18:16:11;8.80;99.90
26655;DHT22;14278;50.784;4.630;2023-03-04T18:18:39;8.60;99.90
26655;DHT22;14278;50.784;4.630;2023-03-04T18:21:40;8.40;99.90
26655;DHT22;14278;50.784;4.630;2023-03-04T18:24:14;8.40;99.90
26655;DHT22;14278;50.784;4.630;2023-03-04T18:26:55;8.50;99.90
26655;DHT22;14278;50.784;4.630;2023-03-04T18:29:31;8.60;99.90
26655;DHT22;14278;50.784;4.630;2023-03-04T18:32:02;8.90;99.90
26655;DHT22;14278;50.784;4.630;2023-03-04T18:34:48;9.10;99.90
26655;DHT22;14278;50.784;4.630;2023-03-04T18:37:17;8.90;99.90
26655;DHT22;14278;50.784;4.630;2023-03-04T18:39:45;8.70;99.90
26655;DHT22;14278;50.784;4.630;2023-03-04T18:42:14;8.80;99.90
26655;DHT22;14278;50.784;4.630;2023-03-04T18:44:50;8.60;99.90
26655;DHT22;14278;50.784;4.630;2023-03-04T18:47:22;8.70;99.90
26655;DHT22;14278;50.784;4.630;2023-03-04T18:50:09;8.80;99.90
26655;DHT22;14278;50.784;4.630;2023-03-04T18:53:16;8.60;99.90
26655;DHT22;14278;50.784;4.630;2023-03-04T18:55:57;8.60;99.90
26655;DHT22;14278;50.784;4.630;2023-03-04T18:58:42;8.80;99.90
26655;DHT22;14278;50.784;4.630;2023-03-04T19:01:29;8.60;99.90
26655;DHT22;14278;50.784;4.630;2023-03-04T19:04:18;8.70;99.90
26655;DHT22;14278;50.784;4.630;2023-03-04T19:07:01;8.70;99.90
26655;DHT22;14278;50.784;4.630;2023-03-04T19:09:34;8.60;99.90
26655;DHT22;14278;50.784;4.630;2023-03-04T19:12:07;8.70;99.90
26655;DHT22;14278;50.784;4.630;2023-03-04T19:17:57;8.30;99.90
26655;DHT22;14278;50.784;4.630;2023-03-04T19:20:33;8.40;99.90
26655;DHT22;14278;50.784;4.630;2023-03-04T19:23:02;8.50;99.90
26655;DHT22;14278;50.784;4.630;2023-03-04T19:25:47;8.50;99.90
26655;DHT22;14278;50.784;4.630;2023-03-04T19:28:29;8.50;99.90
26655;DHT22;14278;50.784;4.630;2023-03-04T19:34:10;8.50;99.90
26655;DHT22;14278;50.784;4.630;2023-03-04T19:36:44;8.60;99.90
26655;DHT22;14278;50.784;4.630;2023-03-04T19:39:14;8.60;99.90
26655;DHT22;14278;50.784;4.630;2023-03-04T19:41:47;8.40;99.90
26655;DHT22;14278;50.784;4.630;2023-03-04T19:44:34;8.50;99.90
26655;DHT22;14278;50.784;4.630;2023-03-04T19:47:27;8.40;99.90
26655;DHT22;14278;50.784;4.630;2023-03-04T19:49:58;8.40;99.90
26655;DHT22;14278;50.784;4.630;2023-03-04T19:52:25;8.50;99.90
26655;DHT22;14278;50.784;4.630;2023-03-04T19:54:53;8.40;99.90
26655;DHT22;14278;50.784;4.630;2023-03-04T19:57:23;8.10;99.90
26655;DHT22;14278;50.784;4.630;2023-03-04T19:59:52;8.40;99.90
26655;DHT22;14278;50.784;4.630;2023-03-04T20:02:24;8.50;99.90
26655;DHT22;14278;50.784;4.630;2023-03-04T20:05:08;8.40;99.90
26655;DHT22;14278;50.784;4.630;2023-03-04T20:07:43;8.20;99.90
26655;DHT22;14278;50.784;4.630;2023-03-04T20:10:11;8.10;99.90
26655;DHT22;14278;50.784;4.630;2023-03-04T20:12:41;8.10;99.90
26655;DHT22;14278;50.784;4.630;2023-03-04T20:15:20;8.20;99.90
26655;DHT22;14278;50.784;4.630;2023-03-04T20:20:55;7.90;99.90
26655;DHT22;14278;50.784;4.630;2023-03-04T20:23:34;7.80;99.90
26655;DHT22;14278;50.784;4.630;2023-03-04T20:26:08;8.10;99.90
26655;DHT22;14278;50.784;4.630;2023-03-04T20:28:47;8.30;99.90
26655;DHT22;14278;50.784;4.630;2023-03-04T20:31:39;8.10;99.90
26655;DHT22;14278;50.784;4.630;2023-03-04T20:34:15;8.00;99.90
26655;DHT22;14278;50.784;4.630;2023-03-04T20:36:44;8.10;99.90
26655;DHT22;14278;50.784;4.630;2023-03-04T20:39:14;8.20;99.90
26655;DHT22;14278;50.784;4.630;2023-03-04T20:42:00;8.20;99.90
26655;DHT22;14278;50.784;4.630;2023-03-04T20:44:28;8.10;99.90
26655;DHT22;14278;50.784;4.630;2023-03-04T20:47:19;8.20;99.90
26655;DHT22;14278;50.784;4.630;2023-03-04T20:49:56;7.70;99.90
26655;DHT22;14278;50.784;4.630;2023-03-04T20:52:33;7.80;99.90
26655;DHT22;14278;50.784;4.630;2023-03-04T20:55:14;7.90;99.90
26655;DHT22;14278;50.784;4.630;2023-03-04T20:58:05;7.90;99.90
26655;DHT22;14278;50.784;4.630;2023-03-04T21:00:39;7.90;99.90
26655;DHT22;14278;50.784;4.630;2023-03-04T21:03:20;7.90;99.90
26655;DHT22;14278;50.784;4.630;2023-03-04T21:06:04;7.70;99.90
26655;DHT22;14278;50.784;4.630;2023-03-04T21:08:43;8.10;99.90
26655;DHT22;14278;50.784;4.630;2023-03-04T21:11:14;7.80;99.90
26655;DHT22;14278;50.784;4.630;2023-03-04T21:13:44;8.00;99.90
26655;DHT22;14278;50.784;4.630;2023-03-04T21:16:25;8.20;99.90
26655;DHT22;14278;50.784;4.630;2023-03-04T21:18:57;8.20;99.90
26655;DHT22;14278;50.784;4.630;2023-03-04T21:21:42;8.10;99.90
26655;DHT22;14278;50.784;4.630;2023-03-04T21:24:32;8.00;99.90
26655;DHT22;14278;50.784;4.630;2023-03-04T21:27:09;8.30;99.90
26655;DHT22;14278;50.784;4.630;2023-03-04T21:29:38;8.10;99.90
26655;DHT22;14278;50.784;4.630;2023-03-04T21:32:45;8.10;99.90
26655;DHT22;14278;50.784;4.630;2023-03-04T21:35:25;8.50;99.90
26655;DHT22;14278;50.784;4.630;2023-03-04T21:37:57;8.50;99.90
26655;DHT22;14278;50.784;4.630;2023-03-04T21:40:33;8.40;99.90
26655;DHT22;14278;50.784;4.630;2023-03-04T21:43:02;8.50;99.90
26655;DHT22;14278;50.784;4.630;2023-03-04T21:45:34;8.40;99.90
26655;DHT22;14278;50.784;4.630;2023-03-04T21:48:03;8.00;99.90
26655;DHT22;14278;50.784;4.630;2023-03-04T21:50:59;7.90;99.90
26655;DHT22;14278;50.784;4.630;2023-03-04T21:53:31;7.70;99.90
26655;DHT22;14278;50.784;4.630;2023-03-04T21:56:43;7.60;99.90
26655;DHT22;14278;50.784;4.630;2023-03-04T21:59:15;7.60;99.90
26655;DHT22;14278;50.784;4.630;2023-03-04T22:01:48;7.90;99.90
26655;DHT22;14278;50.784;4.630;2023-03-04T22:04:27;7.70;99.90
26655;DHT22;14278;50.784;4.630;2023-03-04T22:06:55;7.80;99.90
26655;DHT22;14278;50.784;4.630;2023-03-04T22:09:49;7.80;99.90
26655;DHT22;14278;50.784;4.630;2023-03-04T22:12:21;8.10;99.90
26655;DHT22;14278;50.784;4.630;2023-03-04T22:15:16;8.10;99.90
26655;DHT22;14278;50.784;4.630;2023-03-04T22:17:52;8.00;99.90
26655;DHT22;14278;50.784;4.630;2023-03-04T22:20:29;8.50;99.90
26655;DHT22;14278;50.784;4.630;2023-03-04T22:23:15;8.10;99.90
26655;DHT22;14278;50.784;4.630;2023-03-04T22:25:44;8.00;99.90
26655;DHT22;14278;50.784;4.630;2023-03-04T22:28:17;8.00;99.90
26655;DHT22;14278;50.784;4.630;2023-03-04T22:31:07;7.70;99.90
26655;DHT22;14278;50.784;4.630;2023-03-04T22:34:17;7.60;99.90
26655;DHT22;14278;50.784;4.630;2023-03-04T22:36:51;8.00;99.90
26655;DHT22;14278;50.784;4.630;2023-03-04T22:39:34;8.10;99.90
26655;DHT22;14278;50.784;4.630;2023-03-04T22:42:03;7.70;99.90
26655;DHT22;14278;50.784;4.630;2023-03-04T22:44:41;7.60;99.90
26655;DHT22;14278;50.784;4.630;2023-03-04T22:47:17;7.60;99.90
26655;DHT22;14278;50.784;4.630;2023-03-04T22:49:47;7.60;99.90
26655;DHT22;14278;50.784;4.630;2023-03-04T22:52:17;7.70;99.90
26655;DHT22;14278;50.784;4.630;2023-03-04T22:55:09;7.90;99.90
26655;DHT22;14278;50.784;4.630;2023-03-04T22:57:47;7.70;99.90
26655;DHT22;14278;50.784;4.630;2023-03-04T23:00:22;7.70;99.90
26655;DHT22;14278;50.784;4.630;2023-03-04T23:02:56;7.50;99.90
26655;DHT22;14278;50.784;4.630;2023-03-04T23:05:24;7.70;99.90
26655;DHT22;14278;50.784;4.630;2023-03-04T23:08:04;7.80;99.90
26655;DHT22;14278;50.784;4.630;2023-03-04T23:10:58;8.00;99.90
26655;DHT22;14278;50.784;4.630;2023-03-04T23:13:30;8.10;99.90
26655;DHT22;14278;50.784;4.630;2023-03-04T23:16:02;8.00;99.90
26655;DHT22;14278;50.784;4.630;2023-03-04T23:18:39;7.90;99.90
26655;DHT22;14278;50.784;4.630;2023-03-04T23:21:20;7.90;99.90
26655;DHT22;14278;50.784;4.630;2023-03-04T23:23:59;8.00;99.90
26655;DHT22;14278;50.784;4.630;2023-03-04T23:26:40;7.90;99.90
26655;DHT22;14278;50.784;4.630;2023-03-04T23:29:37;8.10;99.90
26655;DHT22;14278;50.784;4.630;2023-03-04T23:32:16;8.20;99.90
26655;DHT22;14278;50.784;4.630;2023-03-04T23:34:54;7.90;99.90
26655;DHT22;14278;50.784;4.630;2023-03-04T23:37:43;7.90;99.90
26655;DHT22;14278;50.784;4.630;2023-03-04T23:40:32;7.60;99.90
26655;DHT22;14278;50.784;4.630;2023-03-04T23:43:06;7.80;99.90
26655;DHT22;14278;50.784;4.630;2023-03-04T23:45:34;7.90;99.90
26655;DHT22;14278;50.784;4.630;2023-03-04T23:48:04;8.00;99.90
26655;DHT22;14278;50.784;4.630;2023-03-04T23:50:37;7.90;99.90
26655;DHT22;14278;50.784;4.630;2023-03-04T23:53:15;7.90;99.90
26655;DHT22;14278;50.784;4.630;2023-03-04T23:55:46;7.60;99.90
26655;DHT22;14278;50.784;4.630;2023-03-04T23:58:14;7.60;99.90
